Statesboro, GA

6:18 PM EST on February 08, 2016 (GMT -0500)
Savannah Avenue | | Change Station
CLOSE
Current Station
Personal Weather Station
Location: Statesboro, GA
Elevation: 253 ft
Nearby Weather Stations
Active Advisory: Flood Warning

Elev 253 ft 32.44 °N, 81.78 °W | Updated 4 seconds ago

Rain
Rain
47.5 °F
Feels Like 48 °F
N
0.0
Wind Variable Wind from SSE
Gusts 0.0 mph

Today
High -- | Low -- °F
--% Chance of Precip.
Yesterday
High -- | Low -- °F
Precip. -- in
Pressure 29.75 in
Visibility 10.0 miles
Clouds Scattered Clouds 5000 ft
Overcast 6000 ft
Windchill 48 °F
Dew Point 46 °F
Humidity 95%
Rainfall 0.05 in
Snow Depth Not available.
7:16 AM 6:06 PM
New Moon, 0% visible
METAR KTBR 082255Z AUTO 23006KT 10SM SCT050 OVC060 11/05 A2975 RMK AO2 T01110053
Pressure 29.75 in
Visibility 10.0 miles
Clouds Scattered Clouds 5000 ft
Overcast 6000 ft
Windchill 48 °F
Dew Point 46 °F
Humidity 95%
Rainfall 0.05 in
Snow Depth Not available.
7:16 AM 6:06 PM
New Moon, 0% visible
METAR KTBR 082255Z AUTO 23006KT 10SM SCT050 OVC060 11/05 A2975 RMK AO2 T01110053

10-Day Weather Forecast

Almanac

Astronomy

Feb. 08, 2016 Rise Set
Actual Time
Civil Twilight
Nautical Twilight
Astronomical Twilight
Moon
Length of Visible Light
Length of Day
Tomorrow will be .
, % of the Moon is Illuminated

Today's Extremes

State Highs State Lows

Community

WunderPhotos

Upload Photos

1,891,525 photos uploaded!

WunderBlog® & News

Nearby

Air Quality

  Air Quality AQ Index Pollutant
Not available.

Snow Depth

Station Depth Elevation

Earthquake Activity

City Distance Mag. Time & Date
Minimum magnitude displayed is 2.5.

Coastal Water Temperatures

Place Temperature

Stations

Nearby Weather Stations

Station Location Temp. Windchill Dew Point Humidity Wind Precip. Elev Updated Type
                   

Watches & Warnings

Flood Warning
Issued: 11:19 AM EST Feb. 8, 2016 – National Weather Service

The Flood Warning continues for
the Ogeechee river near Eden.
* At 10 am Monday the stage was 12.9 feet.
* Flood stage is 11.0 feet.
* Minor flooding is occurring.
* Forecast, the river will continue rising to near 13.2 feet by
Thursday morning. Additional rises may be possible thereafter.
* At 14.0 feet, several homes and camps near the river are surrounded
by water.


Lat... Lon 3246 8160 3252 8152 3227 8140 3208 8133
          3206 8143 3223 8150